»·PEaware :: WAT348 KPHX-KABQ

WAT348 :: KPHX-KABQ

FLIGHT INFORMATION

Flight Status: Arrived
Operator:
Walker Air Transport
More flights by this operator :: More flights under this callsign
Pilot: Austin W. (7615)
Aircraft: BOEING 727-200
(B722)
More flights by this aircraft type
Origin: KPHX Phoenix Sky Harbor Intl
United States
Destination: KABQ Albuquerque Intl Sunport
United States
More flights between these airports :: More routes between these airports
Route: SJN9 SJN LAVAN3
File this flight plan on PilotEdge
Remarks: / W chronicles. Good morning to my awesome co-workers!
Altitude:
(Current/Filed)
33,000ft
Speed:
(Current/Filed)
450kts
Departed: 27-Dec-20 08:46 AM
Arrived: 27-Dec-20 09:30 AM
Distance/Time
Traveled:
285nm/0:44
Distance/Time
To Go:
Arrived

Flight Plot

Page will automatically refresh every two minutes.

Flight plan parsing failed; only flown route is shown


Map Options




Map Legend


Flown Route
Filed Route
Departure Airport
Arrival Airport
Navaid (VOR, NDB)
Fix

Horizontal Profiles

Position Reports

Time Latitude Longitude Heading Altitude Ground
Speed
27-Dec-20 08:19 33.437158 -111.998691 270 1143ft 0kts
27-Dec-20 08:20 33.437158 -111.998691 270 1143ft 0kts
27-Dec-20 08:21 33.437158 -111.998691 270 1143ft 0kts
27-Dec-20 08:22 33.437158 -111.998691 270 1143ft 0kts
27-Dec-20 08:23 33.437158 -111.998691 270 1143ft 0kts
27-Dec-20 08:24 33.437158 -111.998691 270 1143ft 0kts
27-Dec-20 08:25 33.437158 -111.998691 270 1143ft 0kts
27-Dec-20 08:26 33.437158 -111.998691 270 1143ft 0kts
27-Dec-20 08:27 33.437158 -111.998691 270 1143ft 0kts
27-Dec-20 08:28 33.437158 -111.998691 270 1143ft 0kts
27-Dec-20 08:29 33.437158 -111.998691 270 1143ft 0kts
27-Dec-20 08:30 33.437046 -111.998320 332 1143ft 2kts
27-Dec-20 08:31 33.436871 -111.998284 0 1143ft 0kts
27-Dec-20 08:32 33.436871 -111.998284 0 1143ft 0kts
27-Dec-20 08:33 33.436871 -111.998284 0 1143ft 0kts
27-Dec-20 08:34 33.436871 -111.998284 0 1143ft 0kts
27-Dec-20 08:35 33.436871 -111.998284 0 1143ft 0kts
27-Dec-20 08:36 33.436900 -111.998284 0 1143ft 1kts
27-Dec-20 08:37 33.438725 -111.998369 336 1143ft 9kts
27-Dec-20 08:38 33.439047 -112.003776 269 1143ft 21kts
27-Dec-20 08:39 33.439032 -112.011524 271 1143ft 24kts
27-Dec-20 08:40 33.438996 -112.019907 269 1143ft 27kts
27-Dec-20 08:41 33.439021 -112.028632 270 1143ft 18kts
27-Dec-20 08:42 33.439295 -112.029603 338 1143ft 0kts
27-Dec-20 08:43 33.440755 -112.029624 36 1143ft 5kts
27-Dec-20 08:44 33.440849 -112.029169 89 1143ft 0kts
27-Dec-20 08:45 33.440836 -112.015906 90 1144ft 151kts
27-Dec-20 08:46 33.440559 -111.956099 89 3861ft 197kts
27-Dec-20 08:47 33.441150 -111.881159 69 6505ft 261kts
27-Dec-20 08:48 33.481080 -111.803784 54 10157ft 284kts
27-Dec-20 08:49 33.526676 -111.719764 65 12223ft 323kts
27-Dec-20 08:50 33.563727 -111.617745 65 14785ft 340kts
27-Dec-20 08:51 33.602372 -111.511706 66 17137ft 353kts
27-Dec-20 08:52 33.642042 -111.401746 66 19233ft 364kts
27-Dec-20 08:53 33.683036 -111.288066 66 21083ft 375kts
27-Dec-20 08:54 33.725241 -111.171391 66 22680ft 385kts
27-Dec-20 08:55 33.768850 -111.051543 66 23975ft 394kts
27-Dec-20 08:56 33.813433 -110.928944 66 25167ft 401kts
27-Dec-20 08:57 33.858514 -110.804239 66 26234ft 408kts
27-Dec-20 08:58 33.903957 -110.677464 66 27200ft 414kts
27-Dec-20 08:59 33.949703 -110.548774 66 28084ft 419kts
27-Dec-20 09:00 33.995078 -110.418457 67 28877ft 425kts
27-Dec-20 09:01 34.036698 -110.283348 67 29576ft 439kts
27-Dec-20 09:03 34.078997 -110.138261 64 29210ft 477kts
27-Dec-20 09:04 34.135644 -109.987199 61 29188ft 507kts
27-Dec-20 09:05 34.196257 -109.827666 62 29203ft 531kts
27-Dec-20 09:06 34.252590 -109.668076 66 29174ft 499kts
27-Dec-20 09:07 34.301826 -109.511360 68 29155ft 499kts
27-Dec-20 09:08 34.353288 -109.352896 64 29169ft 514kts
27-Dec-20 09:09 34.408632 -109.189725 65 29167ft 527kts
27-Dec-20 09:10 34.461280 -109.020471 81 29184ft 539kts
27-Dec-20 09:11 34.476935 -108.840535 74 29058ft 534kts
27-Dec-20 09:12 34.508459 -108.666235 77 27873ft 525kts
27-Dec-20 09:13 34.536370 -108.493551 78 27119ft 517kts
27-Dec-20 09:14 34.563734 -108.322504 78 26430ft 511kts
27-Dec-20 09:15 34.591503 -108.154393 77 25533ft 504kts
27-Dec-20 09:16 34.619407 -107.988949 76 24692ft 497kts
27-Dec-20 09:17 34.645628 -107.831220 76 23332ft 457kts
27-Dec-20 09:18 34.679099 -107.685995 60 20260ft 438kts
27-Dec-20 09:18 34.722057 -107.576577 59 17927ft 422kts
27-Dec-20 09:20 34.782166 -107.432559 56 15770ft 399kts
27-Dec-20 09:20 34.825159 -107.334718 57 15030ft 379kts
27-Dec-20 09:21 34.872128 -107.226299 57 14451ft 350kts
27-Dec-20 09:23 34.923403 -107.104605 58 12992ft 339kts
27-Dec-20 09:23 34.958520 -107.020167 58 11991ft 329kts
27-Dec-20 09:24 34.999204 -106.923472 59 10400ft 309kts
27-Dec-20 09:25 35.038256 -106.834763 59 8425ft 279kts
27-Dec-20 09:26 35.045367 -106.757241 93 7597ft 226kts
27-Dec-20 09:27 35.044626 -106.683767 89 6429ft 194kts
27-Dec-20 09:28 35.044404 -106.629373 90 5494ft 146kts
27-Dec-20 09:30 35.044819 -106.592247 69 5344ft 22kts
27-Dec-20 09:30 35.045818 -106.593400 268 5342ft 14kts
27-Dec-20 09:31 35.045815 -106.598883 263 5337ft 23kts
27-Dec-20 09:32 35.045769 -106.607889 270 5327ft 27kts
27-Dec-20 09:33 35.046604 -106.613136 1 5327ft 12kts
27-Dec-20 09:34 35.047952 -106.614266 209 5327ft 1kts
27-Dec-20 09:35 35.047918 -106.614290 209 5327ft 0kts
27-Dec-20 09:36 35.047918 -106.614290 209 5327ft 0kts
27-Dec-20 09:37 35.047918 -106.614290 209 5327ft 0kts
27-Dec-20 09:38 35.047918 -106.614290 209 5327ft 0kts
27-Dec-20 09:39 35.047918 -106.614290 209 5327ft 0kts
27-Dec-20 09:40 35.047918 -106.614290 209 5327ft 0kts
27-Dec-20 09:41 35.047918 -106.614290 209 5327ft 0kts
27-Dec-20 09:42 35.047918 -106.614290 209 5327ft 0kts

Navigation Log

Ident Type
Flight plan parsing failed, navigation log unavailable